PST: 10:07 MST: 11:07 CST: 12:07 EST: 13:07 LDN: 18:07 UTC: 17:07
User Agent: CCBot/2.0 (https://commoncrawl.org/faq/)
IP Address: 34.231.21.83
Hostname: ec2-34-231-21-83.compute-1.amazonaws.com

METAR:
KBFI 261653Z VRB04KT 9SM SCT008 SCT010 OVC022 13/10 A3018 RMK AO2 SLP218 T01280100
KBFI 261603Z 00000KT 2 1/2SM BR BKN008 OVC022 12/10 A3018 RMK AO2 T01170100
KBFI 261556Z VRB03KT 3SM BR BKN008 OVC022 12/10 A3018 RMK AO2 T01170100
KBFI 261553Z VRB04KT 2 1/2SM BR BKN006 OVC022 12/10 A3018 RMK AO2 SLP218 T01170100
KBFI 261545Z VRB04KT 2 1/2SM BR BKN008 BKN014 OVC019 12/10 A3017 RMK AO2 T01170100
KBFI 261533Z VRB05KT 1 1/2SM BR BKN008 BKN014 OVC019 12/10 A3017 RMK AO2 T01170100
KBFI 261522Z COR VRB03KT 2 1/2SM BR BKN008 OVC010 12/10 A3017 RMK AO2 T01170100
KBFI 261453Z VRB04KT 8SM SCT008 BKN016 OVC020 12/10 A3016 RMK AO2 SLP214 T01170100 51015
KBFI 261353Z VRB04KT 6SM BR FEW008 OVC018 12/09 A3015 RMK AO2 SLP209 T01170094

TAF:
KBFI 261223Z 2612/2712 35006KT P6SM BKN010 OVC020 TEMPO 2613/2615 2SM -DZ BR OVC002
FM 261700 30006KT P6SM BKN015 BKN030
FM 262000 30006KT P6SM BKN040 BKN150
FM 270000 30006KT P6SM SCT050 BKN200

KBFI 261120Z 2612/2712 VRB03KT P6SM BKN010 OVC020
FM 261700 30006KT P6SM BKN015 BKN030
FM 262000 30006KT P6SM BKN040 BKN150
FM 270000 30006KT P6SM SCT050 BKN200

KBFI 260902Z 2609/2706 VRB03KT P6SM BKN010 OVC020
FM 261700 30006KT P6SM BKN015 BKN030
FM 262000 30006KT P6SM BKN040 BKN150
FM 270000 30006KT P6SM SCT050 BKN200

KBFI 260608Z 2606/2706 30006KT P6SM BKN020 OVC030
FM 261000 30006KT 2SM -DZ SCT004 BKN008 OVC015
FM 261700 30006KT 4SM BR SCT006 OVC010
FM 261900 30006KT P6SM SCT020 BKN040
FM 262300 30006KT P6SM SCT050 BKN200

KBFI 260308Z 2603/2624 30006KT P6SM BKN020 OVC030
FM 261000 30006KT 2SM -DZ SCT004 BKN008 OVC015
FM 261700 30006KT 4SM BR SCT006 OVC010
FM 261900 30006KT P6SM SCT020 BKN040
FM 262300 30006KT P6SM SCT050 BKN200

KBFI 252324Z 2600/2624 20009KT P6SM FEW017 OVC030
FM 260500 18004KT P6SM VCSH OVC015
FM 261900 30004KT P6SM OVC050

KBFI 252050Z 2521/2618 16007KT 6SM -RA BR SCT011 BKN014
FM 260000 19006KT P6SM OVC025
FM 260500 18004KT P6SM VCSH OVC015
FM 261400 05004KT P6SM OVC015

KBFI 251720Z 2518/2618 16007KT 6SM -RA BKN010 OVC017 TEMPO 2519/2521 6SM -RA BR OVC015
FM 252300 20006KT P6SM -SHRA OVC025
FM 260500 18004KT P6SM VCSH OVC025
FM 260900 22004KT P6SM VCSH OVC015